createdAt,value
2019-06-26T00:02:20.110Z,87.70
2019-06-26T00:04:49.886Z,87.80
2019-06-26T00:07:19.676Z,87.80
2019-06-26T00:09:49.430Z,87.80
2019-06-26T00:12:19.204Z,87.60
2019-06-26T00:14:48.978Z,88.00
2019-06-26T00:17:18.721Z,88.00
2019-06-26T00:19:48.480Z,87.70
2019-06-26T00:22:18.997Z,87.60
2019-06-26T00:24:48.708Z,87.70
2019-06-26T00:27:18.487Z,87.90
2019-06-26T00:29:48.284Z,88.10
2019-06-26T00:32:18.082Z,88.00
2019-06-26T00:34:47.806Z,88.10
2019-06-26T00:37:17.538Z,88.20
2019-06-26T00:39:47.243Z,88.10
2019-06-26T00:42:16.962Z,88.40
2019-06-26T00:44:46.694Z,88.30
2019-06-26T00:47:16.520Z,88.30
2019-06-26T00:49:46.598Z,88.60
2019-06-26T00:52:16.352Z,88.80
2019-06-26T00:54:46.043Z,89.10
2019-06-26T00:57:15.820Z,89.20
2019-06-26T00:59:45.563Z,89.40
2019-06-26T01:02:15.269Z,89.60
2019-06-26T01:04:47.040Z,89.90
2019-06-26T01:07:16.712Z,90.10
2019-06-26T01:09:46.387Z,90.20
2019-06-26T01:12:16.152Z,90.20
2019-06-26T01:14:45.951Z,90.40
2019-06-26T01:17:15.722Z,90.50
2019-06-26T01:19:45.402Z,90.60
2019-06-26T01:22:15.151Z,90.60
2019-06-26T01:24:45.051Z,90.60
2019-06-26T01:27:14.955Z,90.60
2019-06-26T01:29:44.654Z,90.80
2019-06-26T01:32:14.356Z,90.80
2019-06-26T01:34:44.148Z,91.00
2019-06-26T01:37:13.894Z,91.10
2019-06-26T01:39:43.619Z,91.20
2019-06-26T01:42:13.309Z,91.40
2019-06-26T01:44:43.071Z,91.50
2019-06-26T01:47:12.781Z,91.70
2019-06-26T01:49:42.549Z,91.90
2019-06-26T01:52:12.267Z,92.00
2019-06-26T01:54:42.195Z,92.10
2019-06-26T01:57:11.858Z,92.20
2019-06-26T01:59:41.533Z,92.30
2019-06-26T02:02:11.356Z,92.40
2019-06-26T02:04:41.061Z,92.50
2019-06-26T02:07:10.889Z,92.70
2019-06-26T02:09:40.786Z,92.90
2019-06-26T02:12:10.962Z,93.00
2019-06-26T02:14:40.652Z,93.00
2019-06-26T02:17:10.410Z,93.10
2019-06-26T02:19:40.274Z,93.20
2019-06-26T02:22:09.957Z,93.40
2019-06-26T02:24:39.712Z,93.40
2019-06-26T02:27:09.562Z,93.50
2019-06-26T02:29:39.276Z,93.50
2019-06-26T02:32:09.011Z,93.50
2019-06-26T02:34:38.721Z,93.70
2019-06-26T02:37:08.535Z,93.80
2019-06-26T02:39:38.328Z,93.90
2019-06-26T02:42:08.054Z,94.00
2019-06-26T02:44:52.458Z,94.00
2019-06-26T02:47:19.705Z,94.10
2019-06-26T02:49:40.437Z,94.20
2019-06-26T02:52:10.751Z,94.10
2019-06-26T02:54:40.487Z,94.30
2019-06-26T02:57:10.230Z,94.30
2019-06-26T02:59:40.012Z,94.50
2019-06-26T03:02:09.727Z,94.80
2019-06-26T03:04:39.373Z,94.80
2019-06-26T03:07:09.215Z,94.70
2019-06-26T03:09:38.927Z,94.80
2019-06-26T03:12:08.726Z,95.10
2019-06-26T03:14:38.423Z,95.20
2019-06-26T03:17:08.128Z,95.10
2019-06-26T03:19:37.857Z,95.20
2019-06-26T03:22:07.728Z,95.20
2019-06-26T03:24:37.521Z,95.40
2019-06-26T03:27:09.122Z,95.40
2019-06-26T03:29:38.601Z,95.50
2019-06-26T03:32:08.685Z,95.40
2019-06-26T03:34:38.360Z,95.50
2019-06-26T03:37:08.173Z,95.50
2019-06-26T03:39:38.363Z,95.60
2019-06-26T03:42:08.190Z,95.70
2019-06-26T03:44:37.933Z,95.80
2019-06-26T03:47:07.605Z,95.80
2019-06-26T03:49:37.368Z,95.70
2019-06-26T03:52:07.059Z,96.10
2019-06-26T03:54:36.819Z,96.10
2019-06-26T03:57:06.694Z,96.40
2019-06-26T03:59:36.552Z,96.50
2019-06-26T04:02:06.407Z,96.50
2019-06-26T04:04:36.083Z,96.80
2019-06-26T04:07:05.753Z,97.00
2019-06-26T04:09:35.491Z,97.10
2019-06-26T04:12:05.903Z,97.00
2019-06-26T04:14:35.767Z,96.90
2019-06-26T04:17:05.605Z,96.90
2019-06-26T04:19:35.279Z,96.80
2019-06-26T04:22:05.524Z,96.60
2019-06-26T04:24:35.469Z,96.70
2019-06-26T04:27:05.375Z,96.70
2019-06-26T04:29:35.280Z,96.80
2019-06-26T04:32:05.021Z,96.90
2019-06-26T04:34:34.728Z,96.80
2019-06-26T04:37:04.423Z,96.90
2019-06-26T04:39:34.189Z,96.80
2019-06-26T04:42:04.294Z,96.90
2019-06-26T04:44:34.050Z,96.90
2019-06-26T04:47:03.848Z,97.10
2019-06-26T04:49:33.596Z,97.10
2019-06-26T04:52:03.376Z,97.10
2019-06-26T04:54:33.138Z,96.80
2019-06-26T04:57:03.110Z,96.50
2019-06-26T04:59:32.830Z,96.80
2019-06-26T05:02:02.727Z,97.00
2019-06-26T05:04:32.467Z,96.90
2019-06-26T05:07:02.205Z,96.80
2019-06-26T05:09:31.892Z,96.70
2019-06-26T05:12:01.595Z,96.80
2019-06-26T05:14:31.407Z,96.90
2019-06-26T05:17:01.227Z,96.80
2019-06-26T05:19:31.048Z,96.70
2019-06-26T05:22:00.805Z,96.90
2019-06-26T05:24:30.555Z,96.70
2019-06-26T05:27:00.393Z,96.70
2019-06-26T05:29:30.705Z,96.70
2019-06-26T05:32:00.385Z,96.40
2019-06-26T05:34:31.174Z,96.00
2019-06-26T05:37:01.216Z,95.80
2019-06-26T05:39:31.640Z,95.80
2019-06-26T05:42:01.918Z,95.50
2019-06-26T05:44:31.723Z,95.60
2019-06-26T05:47:01.512Z,95.60
2019-06-26T05:49:31.325Z,95.10
2019-06-26T05:52:02.155Z,94.90
2019-06-26T05:54:32.114Z,95.20
2019-06-26T05:57:01.931Z,95.50
2019-06-26T05:59:31.694Z,95.90
2019-06-26T06:02:01.429Z,96.40
2019-06-26T06:04:31.196Z,96.90
2019-06-26T06:07:00.919Z,97.00
2019-06-26T06:09:30.618Z,97.10
2019-06-26T06:12:00.386Z,96.90
2019-06-26T06:14:30.199Z,96.70
2019-06-26T06:16:59.943Z,96.80
2019-06-26T06:19:29.665Z,96.90
2019-06-26T06:21:59.557Z,96.70
2019-06-26T06:24:29.295Z,96.60
2019-06-26T06:26:59.010Z,96.00
2019-06-26T06:29:30.840Z,95.50
2019-06-26T06:32:00.788Z,95.40
2019-06-26T06:34:30.460Z,95.10
2019-06-26T06:37:00.183Z,94.50
2019-06-26T06:39:30.059Z,94.20
2019-06-26T06:41:59.876Z,94.10
2019-06-26T06:44:29.690Z,94.20
2019-06-26T06:47:04.022Z,94.50
2019-06-26T06:49:31.014Z,94.80
2019-06-26T06:52:00.880Z,94.90
2019-06-26T06:54:30.809Z,94.60
2019-06-26T06:57:00.586Z,94.60
2019-06-26T06:59:32.608Z,94.50
2019-06-26T07:02:02.381Z,94.40
2019-06-26T07:04:32.209Z,93.90
2019-06-26T07:07:01.927Z,93.40
2019-06-26T07:09:32.365Z,93.20
2019-06-26T07:12:02.075Z,92.90
2019-06-26T07:14:31.869Z,92.90
2019-06-26T07:17:20.054Z,92.70
2019-06-26T07:19:48.867Z,92.40
2019-06-26T07:22:20.082Z,92.00
2019-06-26T07:24:49.903Z,91.80
2019-06-26T07:27:19.966Z,91.70
2019-06-26T07:29:50.430Z,91.70
2019-06-26T07:32:22.245Z,91.70
2019-06-26T07:34:52.164Z,91.50
2019-06-26T07:37:23.122Z,91.70
2019-06-26T07:39:57.582Z,91.30
2019-06-26T07:42:24.964Z,91.40
2019-06-26T07:44:54.744Z,91.20
2019-06-26T07:47:41.573Z,91.00
2019-06-26T07:49:56.772Z,90.70
2019-06-26T07:52:26.528Z,90.60
2019-06-26T07:54:59.094Z,90.20
2019-06-26T07:57:29.918Z,90.30
2019-06-26T08:00:03.105Z,90.20
2019-06-26T08:02:35.418Z,89.90
2019-06-26T08:05:10.174Z,89.40
2019-06-26T08:07:42.202Z,89.20
2019-06-26T08:10:21.855Z,88.70
2019-06-26T08:12:51.902Z,88.10
2019-06-26T08:15:21.894Z,88.00
2019-06-26T08:18:00.519Z,87.40
2019-06-26T08:20:24.555Z,87.30
2019-06-26T08:22:54.461Z,86.60
2019-06-26T08:25:24.331Z,86.60
2019-06-26T08:27:54.064Z,87.40
2019-06-26T08:30:24.533Z,86.80
2019-06-26T08:32:54.601Z,86.50
2019-06-26T08:35:24.381Z,86.30
2019-06-26T08:38:09.037Z,86.20
2019-06-26T08:40:25.632Z,86.40
2019-06-26T08:42:55.716Z,86.70
2019-06-26T08:45:25.640Z,86.00
2019-06-26T08:47:55.390Z,85.60
2019-06-26T08:50:25.377Z,86.00
2019-06-26T08:52:55.219Z,85.90
2019-06-26T08:55:25.346Z,85.20
2019-06-26T08:57:55.165Z,85.10
2019-06-26T09:00:25.177Z,85.20
2019-06-26T09:02:55.105Z,84.50
2019-06-26T09:05:25.282Z,84.20
2019-06-26T09:07:55.342Z,83.90
2019-06-26T09:10:25.062Z,84.00
2019-06-26T09:12:54.899Z,82.90
2019-06-26T09:15:26.053Z,82.40
2019-06-26T09:17:55.934Z,82.30
2019-06-26T09:20:34.494Z,82.20
2019-06-26T09:23:04.562Z,82.40
2019-06-26T09:25:34.605Z,82.30
2019-06-26T09:28:04.671Z,82.30
2019-06-26T09:30:34.674Z,82.00
2019-06-26T09:33:05.780Z,81.60
2019-06-26T09:35:35.500Z,81.40
2019-06-26T09:38:05.605Z,81.30
2019-06-26T09:40:54.602Z,81.30
2019-06-26T09:43:25.058Z,80.90
2019-06-26T09:45:55.429Z,80.50
2019-06-26T09:48:25.190Z,79.90
2019-06-26T09:50:54.925Z,79.20
2019-06-26T09:53:24.750Z,78.60
2019-06-26T09:55:54.585Z,77.70
2019-06-26T09:58:33.565Z,77.90
2019-06-26T10:01:03.385Z,77.40
2019-06-26T10:03:33.653Z,76.80
2019-06-26T10:06:03.542Z,76.20
2019-06-26T10:08:33.608Z,76.20
2019-06-26T10:11:03.775Z,76.20
2019-06-26T10:13:33.731Z,75.90
2019-06-26T10:16:03.819Z,75.70
2019-06-26T10:18:33.556Z,75.30
2019-06-26T10:21:03.631Z,74.90
2019-06-26T10:23:33.438Z,74.70
2019-06-26T10:26:03.859Z,74.20
2019-06-26T10:28:33.737Z,74.10
2019-06-26T10:31:03.489Z,74.40
2019-06-26T10:33:33.277Z,74.70
2019-06-26T10:36:03.163Z,75.80
2019-06-26T10:38:33.160Z,74.80
2019-06-26T10:41:02.926Z,74.00
2019-06-26T10:43:32.734Z,73.00
2019-06-26T10:46:02.739Z,73.30
2019-06-26T10:48:32.928Z,72.60
2019-06-26T10:51:04.348Z,72.30
2019-06-26T10:53:34.186Z,73.20
2019-06-26T10:56:04.244Z,72.80
2019-06-26T10:58:33.997Z,72.30
2019-06-26T11:01:03.757Z,72.30
2019-06-26T11:03:33.835Z,72.40
2019-06-26T11:06:03.709Z,72.30
2019-06-26T11:08:33.574Z,72.50
2019-06-26T11:11:03.991Z,71.40
2019-06-26T11:13:34.320Z,71.10
2019-06-26T11:16:11.065Z,71.70
2019-06-26T11:18:41.583Z,71.00
2019-06-26T11:21:11.441Z,71.20
2019-06-26T11:23:41.370Z,71.20
2019-06-26T11:26:11.188Z,71.60
2019-06-26T11:28:41.278Z,71.60
2019-06-26T11:31:11.029Z,70.40
2019-06-26T11:33:40.908Z,69.80
2019-06-26T11:36:10.819Z,70.40
2019-06-26T11:38:40.581Z,70.20
2019-06-26T11:41:10.477Z,70.10
2019-06-26T11:43:40.365Z,70.00
2019-06-26T11:46:10.185Z,69.90
2019-06-26T11:48:39.961Z,70.10
2019-06-26T11:51:09.976Z,69.80
2019-06-26T11:53:40.270Z,69.30
2019-06-26T11:56:11.165Z,68.70
2019-06-26T11:58:40.942Z,68.30
2019-06-26T12:01:10.839Z,68.10
2019-06-26T12:03:40.671Z,67.80
2019-06-26T12:06:18.195Z,68.10
2019-06-26T12:08:41.922Z,68.90
2019-06-26T12:11:11.789Z,70.20
2019-06-26T12:13:41.693Z,70.30
2019-06-26T12:16:11.452Z,69.80
2019-06-26T12:18:41.229Z,69.00
2019-06-26T12:21:11.129Z,69.10
2019-06-26T12:23:40.946Z,70.10
2019-06-26T12:26:10.825Z,70.70
2019-06-26T12:28:40.572Z,70.10
2019-06-26T12:31:10.389Z,71.30
2019-06-26T12:33:40.268Z,71.30
2019-06-26T12:36:10.139Z,71.40
2019-06-26T12:38:40.177Z,70.60
2019-06-26T12:41:09.997Z,70.70
2019-06-26T12:43:39.886Z,72.20
2019-06-26T12:46:10.089Z,72.30
2019-06-26T12:48:39.799Z,71.10
2019-06-26T12:51:09.590Z,69.80
2019-06-26T12:53:39.425Z,69.30
2019-06-26T12:56:09.235Z,68.60
2019-06-26T12:58:39.107Z,69.00
2019-06-26T13:01:08.834Z,69.60
2019-06-26T13:03:38.671Z,69.40
2019-06-26T13:06:08.613Z,70.00
2019-06-26T13:08:38.415Z,70.30
2019-06-26T13:11:08.133Z,70.20
2019-06-26T13:13:38.973Z,69.70
2019-06-26T13:16:08.818Z,69.10
2019-06-26T13:18:38.603Z,69.50
2019-06-26T13:21:09.283Z,69.00
2019-06-26T13:23:39.147Z,68.60
2019-06-26T13:32:26.282Z,65.90
2019-06-26T13:34:56.087Z,66.20
2019-06-26T13:37:25.906Z,66.10
2019-06-26T13:39:55.645Z,66.00
2019-06-26T13:42:25.608Z,65.30
2019-06-26T13:44:55.452Z,65.50
2019-06-26T13:47:25.317Z,64.70
2019-06-26T13:49:55.242Z,64.10
2019-06-26T13:52:25.014Z,63.60
2019-06-26T13:54:57.232Z,64.90
2019-06-26T13:57:26.523Z,65.10
2019-06-26T13:59:56.436Z,64.20
2019-06-26T14:02:26.244Z,63.70
2019-06-26T14:04:56.155Z,65.20
2019-06-26T14:07:25.919Z,65.20
2019-06-26T14:09:55.725Z,63.80
2019-06-26T14:12:25.548Z,63.50
2019-06-26T14:14:57.746Z,63.40
2019-06-26T14:17:26.799Z,63.10
2019-06-26T14:19:56.690Z,63.30
2019-06-26T14:22:26.913Z,62.60
2019-06-26T14:24:56.835Z,61.80
2019-06-26T14:27:26.699Z,61.40
2019-06-26T14:29:56.452Z,61.20
2019-06-26T14:32:26.397Z,61.50
2019-06-26T14:34:58.028Z,61.70
2019-06-26T14:37:28.032Z,60.80
2019-06-26T14:39:58.071Z,59.90
2019-06-26T14:42:27.906Z,60.00
2019-06-26T14:44:57.701Z,60.00
2019-06-26T14:47:27.502Z,60.00
2019-06-26T14:49:57.318Z,60.50
2019-06-26T14:52:27.093Z,60.60
2019-06-26T14:54:56.833Z,59.60
2019-06-26T14:57:26.823Z,60.00
2019-06-26T14:59:56.723Z,59.30
2019-06-26T15:02:26.673Z,59.70
2019-06-26T15:04:56.429Z,60.10
2019-06-26T15:07:26.250Z,61.40
2019-06-26T15:09:56.264Z,61.30
2019-06-26T15:12:27.620Z,61.10
2019-06-26T15:14:57.739Z,61.50
2019-06-26T15:17:27.564Z,60.50
2019-06-26T15:19:57.619Z,59.80
2019-06-26T15:22:27.556Z,59.50
2019-06-26T15:24:57.278Z,59.60
2019-06-26T15:27:27.063Z,58.90
2019-06-26T15:29:56.815Z,58.30
2019-06-26T15:32:26.572Z,58.90
2019-06-26T15:34:56.452Z,59.80
2019-06-26T15:37:26.351Z,59.30
2019-06-26T15:39:56.209Z,58.70
2019-06-26T15:42:26.019Z,58.50
2019-06-26T15:44:56.138Z,58.30
2019-06-26T15:47:26.019Z,58.40
2019-06-26T15:49:55.830Z,58.10
2019-06-26T15:52:25.857Z,58.30
2019-06-26T15:54:55.643Z,57.90
2019-06-26T15:57:25.599Z,57.60
2019-06-26T15:59:55.465Z,57.10
2019-06-26T16:02:25.188Z,57.90
2019-06-26T16:04:55.015Z,57.80
2019-06-26T16:07:24.825Z,58.00
2019-06-26T16:09:54.599Z,57.70
2019-06-26T16:12:24.333Z,57.50
2019-06-26T16:14:54.096Z,57.90
2019-06-26T16:17:33.135Z,58.20
2019-06-26T16:20:03.006Z,57.50
2019-06-26T16:22:33.022Z,57.50
2019-06-26T16:25:03.111Z,57.60
2019-06-26T16:27:33.596Z,57.50
2019-06-26T16:30:03.609Z,57.20
2019-06-26T16:32:33.746Z,56.90
2019-06-26T16:35:04.226Z,56.40
2019-06-26T16:37:34.063Z,55.70
2019-06-26T16:40:04.029Z,55.60
2019-06-26T16:42:33.977Z,55.40
2019-06-26T16:45:04.003Z,55.30
2019-06-26T16:47:33.855Z,54.70
2019-06-26T16:50:03.722Z,54.20
2019-06-26T16:52:47.805Z,54.10
2019-06-26T16:55:05.565Z,54.40
2019-06-26T16:57:35.273Z,53.90
2019-06-26T17:00:09.899Z,54.10
2019-06-26T17:02:38.497Z,53.70
2019-06-26T17:05:08.311Z,53.40
2019-06-26T17:07:38.081Z,53.50
2019-06-26T17:16:40.200Z,53.80
2019-06-26T17:25:12.656Z,52.20
2019-06-26T17:27:42.403Z,52.10
2019-06-26T17:30:12.907Z,52.30
2019-06-26T17:32:42.732Z,51.80
2019-06-26T17:35:12.896Z,52.30
2019-06-26T17:37:42.716Z,51.40
2019-06-26T17:40:13.067Z,52.00
2019-06-26T17:42:43.045Z,52.70
2019-06-26T17:45:13.060Z,52.20
2019-06-26T17:47:42.966Z,52.50
2019-06-26T17:50:13.495Z,52.10
2019-06-26T17:52:43.536Z,52.00
2019-06-26T17:55:13.643Z,52.00
2019-06-26T17:57:47.284Z,52.10
2019-06-26T18:00:16.153Z,53.30
2019-06-26T18:02:46.054Z,54.40
2019-06-26T18:05:16.024Z,54.60
2019-06-26T18:07:46.082Z,54.30
2019-06-26T18:10:16.430Z,55.00
2019-06-26T18:12:46.152Z,53.80
2019-06-26T18:15:16.540Z,54.50
2019-06-26T18:17:49.920Z,54.80
2019-06-26T18:20:20.112Z,54.90
2019-06-26T18:23:05.448Z,55.60
2019-06-26T18:25:21.767Z,55.00
2019-06-26T18:27:51.689Z,55.00
2019-06-26T18:30:22.768Z,55.20
2019-06-26T18:32:53.398Z,56.10
2019-06-26T18:35:25.106Z,56.10
2019-06-26T18:37:54.970Z,55.90
2019-06-26T18:40:24.970Z,56.10
2019-06-26T18:42:54.988Z,57.30
2019-06-26T18:45:25.056Z,58.10
2019-06-26T18:47:54.838Z,58.00
2019-06-26T18:50:24.720Z,57.90
2019-06-26T18:52:54.627Z,58.50
2019-06-26T18:55:24.545Z,60.20
2019-06-26T18:57:54.479Z,63.10
2019-06-26T19:00:24.305Z,65.50
2019-06-26T19:02:54.179Z,66.50
2019-06-26T19:05:24.162Z,67.30
2019-06-26T19:07:54.044Z,68.20
2019-06-26T19:10:23.892Z,68.70
2019-06-26T19:12:53.730Z,69.30
2019-06-26T19:15:23.636Z,69.80
2019-06-26T19:17:54.720Z,70.40
2019-06-26T19:20:24.696Z,71.10
2019-06-26T19:22:54.592Z,71.60
2019-06-26T19:25:24.441Z,72.40
2019-06-26T19:27:54.373Z,72.90
2019-06-26T19:30:24.269Z,73.40
2019-06-26T19:32:54.360Z,73.40
2019-06-26T19:35:24.602Z,73.90
2019-06-26T19:37:54.501Z,74.80
2019-06-26T19:40:24.505Z,75.40
2019-06-26T19:42:54.310Z,76.10
2019-06-26T19:45:24.340Z,76.10
2019-06-26T19:48:16.828Z,77.20
2019-06-26T19:50:46.639Z,77.50
2019-06-26T19:53:16.511Z,78.20
2019-06-26T19:55:46.306Z,79.00
2019-06-26T19:58:16.298Z,79.20
2019-06-26T20:00:46.612Z,80.70
2019-06-26T20:03:16.482Z,79.90
2019-06-26T20:05:46.321Z,80.50
2019-06-26T20:08:16.093Z,80.20
2019-06-26T20:10:46.104Z,80.70
2019-06-26T20:13:16.372Z,80.90
2019-06-26T20:15:46.457Z,82.10
2019-06-26T20:18:16.268Z,81.70
2019-06-26T20:20:46.077Z,82.30
2019-06-26T20:23:15.884Z,82.60
2019-06-26T20:25:45.592Z,83.80
2019-06-26T20:28:15.342Z,83.60
2019-06-26T20:30:45.305Z,84.00
2019-06-26T20:33:15.434Z,83.70
2019-06-26T20:35:45.366Z,84.00
2019-06-26T20:38:15.544Z,84.70
2019-06-26T20:40:46.122Z,84.80
2019-06-26T20:43:16.307Z,85.20
2019-06-26T20:45:46.180Z,85.60
2019-06-26T20:48:16.017Z,85.50
2019-06-26T20:50:45.808Z,85.80
2019-06-26T20:53:15.568Z,85.70
2019-06-26T20:55:45.482Z,85.70
2019-06-26T20:58:15.284Z,85.80
2019-06-26T21:00:45.491Z,86.60
2019-06-26T21:03:15.449Z,86.70
2019-06-26T21:05:45.305Z,86.70
2019-06-26T21:08:15.934Z,87.00
2019-06-26T21:10:46.011Z,86.80
2019-06-26T21:13:16.232Z,88.00
2019-06-26T21:15:52.785Z,87.60
2019-06-26T21:18:22.403Z,87.60
2019-06-26T21:20:52.674Z,87.70
2019-06-26T21:23:23.569Z,88.10
2019-06-26T21:25:53.859Z,88.20
2019-06-26T21:28:23.756Z,88.00
2019-06-26T21:30:53.533Z,87.80
2019-06-26T21:33:23.431Z,88.10
2019-06-26T21:35:53.173Z,88.60
2019-06-26T21:38:23.100Z,89.50
2019-06-26T21:40:52.929Z,89.40
2019-06-26T21:43:22.622Z,88.80
2019-06-26T21:45:52.354Z,88.70
2019-06-26T21:48:22.185Z,88.50
2019-06-26T21:50:51.854Z,88.50
2019-06-26T21:53:21.650Z,89.20
2019-06-26T21:55:51.451Z,89.20
2019-06-26T21:58:21.298Z,89.70
2019-06-26T22:00:51.149Z,89.30
2019-06-26T22:03:21.074Z,89.00
2019-06-26T22:05:50.903Z,89.00
2019-06-26T22:08:21.057Z,88.90
2019-06-26T22:10:50.801Z,88.70
2019-06-26T22:13:20.696Z,89.20
2019-06-26T22:15:51.108Z,89.30
2019-06-26T22:18:21.455Z,89.10
2019-06-26T22:20:51.437Z,89.20
2019-06-26T22:23:21.334Z,89.50
2019-06-26T22:25:51.600Z,89.40
2019-06-26T22:28:21.888Z,89.80
2019-06-26T22:30:51.878Z,90.00
2019-06-26T22:33:21.737Z,89.60
2019-06-26T22:35:51.535Z,89.90
2019-06-26T22:38:21.364Z,90.30
2019-06-26T22:40:51.088Z,90.30
2019-06-26T22:43:21.001Z,90.10
2019-06-26T22:45:50.894Z,90.00
2019-06-26T22:48:20.676Z,90.10
2019-06-26T22:50:50.461Z,90.10
2019-06-26T22:53:20.369Z,90.20
2019-06-26T22:56:06.436Z,90.00
2019-06-26T22:58:21.967Z,89.90
2019-06-26T23:00:51.877Z,90.10
2019-06-26T23:03:21.689Z,90.30
2019-06-26T23:05:51.656Z,90.30
2019-06-26T23:08:21.431Z,90.30
2019-06-26T23:10:51.147Z,90.40
2019-06-26T23:13:21.139Z,90.60
2019-06-26T23:15:51.058Z,90.50
2019-06-26T23:18:20.915Z,90.60
2019-06-26T23:20:50.752Z,91.20
2019-06-26T23:23:20.734Z,90.80
2019-06-26T23:25:50.753Z,90.80
2019-06-26T23:28:20.779Z,90.60
2019-06-26T23:30:50.578Z,90.60
2019-06-26T23:33:20.419Z,90.80
2019-06-26T23:35:50.134Z,90.90
2019-06-26T23:38:20.085Z,90.80
2019-06-26T23:40:50.022Z,90.80
2019-06-26T23:43:19.889Z,90.60
2019-06-26T23:45:49.942Z,90.80
2019-06-26T23:48:19.761Z,90.70
2019-06-26T23:50:50.125Z,90.80
2019-06-26T23:53:19.996Z,90.90
